createdAt,value
2022-10-23T00:00:18.013Z,12.04
2022-10-23T00:02:45.168Z,12.05
2022-10-23T00:05:12.117Z,12.02
2022-10-23T00:07:38.879Z,12.01
2022-10-23T00:10:07.911Z,12.01
2022-10-23T00:12:34.841Z,12.02
2022-10-23T00:15:01.785Z,12.03
2022-10-23T00:17:28.445Z,12.03
2022-10-23T00:19:55.129Z,11.97
2022-10-23T00:22:22.106Z,11.89
2022-10-23T00:24:48.799Z,11.81
2022-10-23T00:27:16.797Z,11.70
2022-10-23T00:29:45.083Z,11.59
2022-10-23T00:32:11.847Z,11.52
2022-10-23T00:34:38.577Z,11.49
2022-10-23T00:37:05.378Z,11.47
2022-10-23T00:39:32.070Z,11.43
2022-10-23T00:41:59.087Z,11.39
2022-10-23T00:45:03.131Z,11.37
2022-10-23T00:47:31.141Z,11.31
2022-10-23T00:49:58.820Z,11.31
2022-10-23T00:52:25.508Z,11.31
2022-10-23T00:54:52.605Z,11.31
2022-10-23T00:57:19.358Z,11.34
2022-10-23T00:59:46.144Z,11.36
2022-10-23T01:02:13.215Z,11.38
2022-10-23T01:04:41.770Z,11.37
2022-10-23T01:07:15.133Z,11.39
2022-10-23T01:09:48.198Z,11.43
2022-10-23T01:12:20.989Z,11.44
2022-10-23T01:15:00.146Z,11.45
2022-10-23T01:17:34.208Z,11.44
2022-10-23T01:20:14.188Z,11.48
2022-10-23T01:23:05.540Z,11.43
2022-10-23T01:25:55.570Z,11.40
2022-10-23T01:28:29.538Z,11.30
2022-10-23T01:30:58.152Z,11.19
2022-10-23T01:33:35.285Z,11.09
2022-10-23T01:36:05.893Z,11.01
2022-10-23T01:38:41.219Z,10.97
2022-10-23T01:41:20.936Z,10.94
2022-10-23T01:43:54.643Z,10.96
2022-10-23T01:46:23.619Z,10.98
2022-10-23T01:48:53.201Z,11.01
2022-10-23T01:51:25.022Z,11.05
2022-10-23T01:53:57.263Z,11.09
2022-10-23T01:56:28.903Z,11.10
2022-10-23T01:59:00.831Z,11.09
2022-10-23T02:01:33.026Z,11.10
2022-10-23T02:04:03.286Z,11.06
2022-10-23T02:06:30.910Z,10.98
2022-10-23T02:08:57.755Z,10.93
2022-10-23T02:11:24.857Z,10.86
2022-10-23T02:14:01.207Z,10.73
2022-10-23T02:16:36.925Z,10.61
2022-10-23T02:19:12.819Z,10.53
2022-10-23T02:21:43.766Z,10.44
2022-10-23T02:24:13.723Z,10.42
2022-10-23T02:26:51.492Z,10.44
2022-10-23T02:29:26.479Z,10.48
2022-10-23T02:31:55.244Z,10.51
2022-10-23T02:34:22.942Z,10.54
2022-10-23T02:36:49.754Z,10.60
2022-10-23T02:39:20.127Z,10.57
2022-10-23T02:41:54.820Z,10.53
2022-10-23T02:44:34.054Z,10.42
2022-10-23T02:47:14.158Z,10.32
2022-10-23T02:49:50.697Z,10.28
2022-10-23T02:52:24.235Z,10.29
2022-10-23T02:55:05.202Z,10.33
2022-10-23T02:57:49.681Z,10.33
2022-10-23T03:00:20.323Z,10.37
2022-10-23T03:02:56.705Z,10.40
2022-10-23T03:05:27.213Z,10.33
2022-10-23T03:07:54.247Z,10.28
2022-10-23T03:10:21.233Z,10.27
2022-10-23T03:12:48.844Z,10.28
2022-10-23T03:15:17.814Z,10.26
2022-10-23T03:17:44.521Z,10.25
2022-10-23T03:20:11.525Z,10.29
2022-10-23T03:22:38.310Z,10.30
2022-10-23T03:25:07.831Z,10.36
2022-10-23T03:27:35.627Z,10.36
2022-10-23T03:30:06.186Z,10.35
2022-10-23T03:32:36.582Z,10.35
2022-10-23T03:35:03.741Z,10.36
2022-10-23T03:37:30.527Z,10.37
2022-10-23T03:39:57.311Z,10.34
2022-10-23T03:42:24.028Z,10.33
2022-10-23T03:44:50.714Z,10.32
2022-10-23T03:47:18.875Z,10.33
2022-10-23T03:49:46.963Z,10.30
2022-10-23T03:52:13.855Z,10.26
2022-10-23T03:54:40.608Z,10.23
2022-10-23T03:57:07.345Z,10.21
2022-10-23T03:59:34.143Z,10.18
2022-10-23T04:02:01.002Z,10.19
2022-10-23T04:04:27.820Z,10.21
2022-10-23T04:06:55.770Z,10.24
2022-10-23T04:09:22.770Z,10.24
2022-10-23T04:11:49.409Z,10.21
2022-10-23T04:14:16.639Z,10.18
2022-10-23T04:16:43.300Z,10.14
2022-10-23T04:19:10.208Z,10.08
2022-10-23T04:21:36.862Z,9.99
2022-10-23T04:24:05.754Z,9.94
2022-10-23T04:26:32.519Z,9.85
2022-10-23T04:28:59.282Z,9.76
2022-10-23T04:31:28.612Z,9.70
2022-10-23T04:33:55.494Z,9.67
2022-10-23T04:36:28.997Z,9.65
2022-10-23T04:38:58.739Z,9.62
2022-10-23T04:41:27.025Z,9.57
2022-10-23T04:43:53.666Z,9.54
2022-10-23T04:46:20.344Z,9.52
2022-10-23T04:48:48.494Z,9.54
2022-10-23T04:51:29.570Z,9.55
2022-10-23T04:54:38.005Z,9.54
2022-10-23T04:57:21.298Z,9.51
2022-10-23T05:00:06.088Z,9.48
2022-10-23T05:02:40.338Z,9.43
2022-10-23T05:05:08.079Z,9.42
2022-10-23T05:07:57.449Z,9.40
2022-10-23T05:10:47.904Z,9.41
2022-10-23T05:13:19.649Z,9.41
2022-10-23T05:15:48.279Z,9.45
2022-10-23T05:18:22.921Z,9.48
2022-10-23T05:20:52.131Z,9.48
2022-10-23T05:23:21.957Z,9.44
2022-10-23T05:25:55.217Z,9.44
2022-10-23T05:28:23.623Z,9.46
2022-10-23T05:30:51.378Z,9.44
2022-10-23T05:33:18.214Z,9.44
2022-10-23T05:35:45.560Z,9.51
2022-10-23T05:38:15.606Z,9.53
2022-10-23T05:40:43.475Z,9.54
2022-10-23T05:43:15.434Z,9.55
2022-10-23T05:45:50.729Z,9.56
2022-10-23T05:48:35.398Z,9.49
2022-10-23T05:51:10.844Z,9.49
2022-10-23T05:53:47.651Z,9.50
2022-10-23T05:56:30.751Z,9.50
2022-10-23T05:59:05.258Z,9.52
2022-10-23T06:01:53.706Z,9.55
2022-10-23T06:04:36.625Z,9.53
2022-10-23T06:07:25.135Z,9.53
2022-10-23T06:09:54.282Z,9.50
2022-10-23T06:12:21.939Z,9.48
2022-10-23T06:14:51.028Z,9.46
2022-10-23T06:17:20.175Z,9.49
2022-10-23T06:19:47.076Z,9.56
2022-10-23T06:22:17.355Z,9.57
2022-10-23T06:24:58.946Z,9.58
2022-10-23T06:27:27.219Z,9.61
2022-10-23T06:29:55.145Z,9.65
2022-10-23T06:32:23.334Z,9.71
2022-10-23T06:35:09.485Z,9.72
2022-10-23T06:37:36.169Z,9.77
2022-10-23T06:40:12.065Z,9.79
2022-10-23T06:42:59.009Z,9.82
2022-10-23T06:45:55.480Z,9.86
2022-10-23T06:48:46.970Z,9.87
2022-10-23T06:51:22.412Z,9.91
2022-10-23T06:53:49.879Z,9.95
2022-10-23T06:56:39.406Z,9.98
2022-10-23T06:59:08.033Z,10.01
2022-10-23T07:01:36.120Z,10.03
2022-10-23T07:04:07.562Z,10.09
2022-10-23T07:06:34.291Z,10.15
2022-10-23T07:09:01.328Z,10.15
2022-10-23T07:11:48.068Z,10.16
2022-10-23T07:14:15.030Z,10.22
2022-10-23T07:16:42.355Z,10.23
2022-10-23T07:19:11.247Z,10.30
2022-10-23T07:21:43.759Z,10.35
2022-10-23T07:24:31.914Z,10.38
2022-10-23T07:27:00.611Z,10.44
2022-10-23T07:29:29.052Z,10.58
2022-10-23T07:31:57.510Z,10.69
2022-10-23T07:35:04.064Z,10.84
2022-10-23T07:37:33.907Z,10.95
2022-10-23T07:40:03.094Z,11.07
2022-10-23T07:42:32.588Z,11.18
2022-10-23T07:44:59.251Z,11.33
2022-10-23T07:47:26.026Z,11.49
2022-10-23T07:49:53.012Z,11.62
2022-10-23T07:52:21.724Z,11.72
2022-10-23T07:55:09.245Z,11.78
2022-10-23T07:57:38.451Z,11.82
2022-10-23T08:00:27.871Z,11.91
2022-10-23T08:03:04.098Z,12.07
2022-10-23T08:05:31.941Z,12.22
2022-10-23T08:08:02.519Z,12.38
2022-10-23T08:10:30.277Z,12.51
2022-10-23T08:12:58.207Z,12.64
2022-10-23T08:15:45.227Z,12.77
2022-10-23T08:18:31.417Z,12.91
2022-10-23T08:21:02.058Z,13.04
2022-10-23T08:23:30.765Z,13.19
2022-10-23T08:25:59.048Z,13.33
2022-10-23T08:28:26.112Z,13.50
2022-10-23T08:30:55.871Z,13.59
2022-10-23T08:33:22.933Z,13.65
2022-10-23T08:35:50.757Z,13.71
2022-10-23T08:38:25.092Z,13.72
2022-10-23T08:40:53.824Z,13.77
2022-10-23T08:43:34.358Z,13.82
2022-10-23T08:46:17.762Z,13.92
2022-10-23T08:49:35.747Z,14.22
2022-10-23T08:52:14.106Z,14.51
2022-10-23T08:54:48.613Z,14.83
2022-10-23T08:57:18.476Z,15.13
2022-10-23T08:59:48.133Z,15.47
2022-10-23T09:02:20.453Z,15.77
2022-10-23T09:04:50.387Z,16.01
2022-10-23T09:07:34.021Z,16.29
2022-10-23T09:10:16.508Z,16.50
2022-10-23T09:12:44.597Z,16.71
2022-10-23T09:15:23.160Z,16.96
2022-10-23T09:17:55.981Z,17.24
2022-10-23T09:20:25.714Z,17.49
2022-10-23T09:22:55.087Z,17.81
2022-10-23T09:25:25.466Z,18.07
2022-10-23T09:27:57.441Z,18.32
2022-10-23T09:30:29.913Z,18.59
2022-10-23T09:32:56.587Z,18.81
2022-10-23T09:35:25.730Z,19.02
2022-10-23T09:37:55.773Z,19.26
2022-10-23T09:40:30.227Z,19.52
2022-10-23T09:43:00.584Z,19.68
2022-10-23T09:45:31.542Z,19.79
2022-10-23T09:48:11.656Z,19.95
2022-10-23T09:50:47.374Z,20.13
2022-10-23T09:53:17.128Z,20.35
2022-10-23T09:55:51.517Z,20.57
2022-10-23T09:58:25.064Z,20.78
2022-10-23T10:00:54.704Z,20.96
2022-10-23T10:03:37.706Z,21.10
2022-10-23T10:06:23.198Z,21.13
2022-10-23T10:08:53.343Z,21.12
2022-10-23T10:11:25.842Z,21.12
2022-10-23T10:14:06.832Z,21.16
2022-10-23T10:16:42.568Z,21.29
2022-10-23T10:19:20.047Z,21.37
2022-10-23T10:21:52.907Z,21.40
2022-10-23T10:24:25.901Z,21.34
2022-10-23T10:27:00.939Z,21.22
2022-10-23T10:29:43.917Z,21.08
2022-10-23T10:32:24.909Z,20.93
2022-10-23T10:34:58.902Z,20.86
2022-10-23T10:37:31.431Z,20.86
2022-10-23T10:40:02.965Z,20.85
2022-10-23T10:42:42.273Z,20.94
2022-10-23T10:45:19.745Z,21.18
2022-10-23T10:48:00.877Z,21.35
2022-10-23T10:50:42.699Z,21.45
2022-10-23T10:53:28.189Z,21.52
2022-10-23T10:55:57.395Z,21.61
2022-10-23T10:58:31.914Z,21.71
2022-10-23T11:01:03.913Z,21.79
2022-10-23T11:03:39.879Z,21.84
2022-10-23T11:06:15.216Z,21.77
2022-10-23T11:08:56.250Z,21.56
2022-10-23T11:11:31.514Z,21.52
2022-10-23T11:13:58.442Z,21.56
2022-10-23T11:16:30.684Z,21.64
2022-10-23T11:19:11.444Z,21.70
2022-10-23T11:21:44.797Z,21.79
2022-10-23T11:24:27.655Z,21.94
2022-10-23T11:27:19.255Z,22.02
2022-10-23T11:30:04.139Z,22.09
2022-10-23T11:33:14.934Z,22.15
2022-10-23T11:35:54.815Z,22.17
2022-10-23T11:38:27.125Z,22.25
2022-10-23T11:40:56.407Z,22.32
2022-10-23T11:43:28.397Z,22.37
2022-10-23T11:45:55.382Z,22.42
2022-10-23T11:48:35.517Z,22.50
2022-10-23T11:51:05.141Z,22.61
2022-10-23T11:53:40.269Z,22.74
2022-10-23T11:56:26.646Z,22.76
2022-10-23T11:58:55.692Z,22.77
2022-10-23T12:01:31.396Z,22.86
2022-10-23T12:04:03.886Z,22.89
2022-10-23T12:06:38.075Z,22.93
2022-10-23T12:09:08.075Z,22.93
2022-10-23T12:11:44.688Z,22.90
2022-10-23T12:14:27.796Z,22.85
2022-10-23T12:16:54.640Z,22.76
2022-10-23T12:19:25.097Z,22.70
2022-10-23T12:21:53.633Z,22.69
2022-10-23T12:24:49.172Z,22.71
2022-10-23T12:27:28.559Z,22.72
2022-10-23T12:30:09.513Z,22.73
2022-10-23T12:32:46.862Z,22.76
2022-10-23T12:35:27.749Z,22.80
2022-10-23T12:38:10.326Z,22.87
2022-10-23T12:40:37.334Z,22.88
2022-10-23T12:43:20.749Z,22.90
2022-10-23T12:45:48.045Z,22.90
2022-10-23T12:48:19.709Z,22.94
2022-10-23T12:50:51.106Z,22.99
2022-10-23T12:53:19.823Z,23.02
2022-10-23T12:55:48.044Z,22.97
2022-10-23T12:58:19.517Z,22.92
2022-10-23T13:00:51.496Z,22.93
2022-10-23T13:03:21.681Z,22.97
2022-10-23T13:05:51.497Z,23.00
2022-10-23T13:08:19.001Z,23.04
2022-10-23T13:11:06.743Z,23.08
2022-10-23T13:13:40.410Z,23.07
2022-10-23T13:16:14.461Z,23.13
2022-10-23T13:18:42.043Z,23.11
2022-10-23T13:21:17.967Z,23.12
2022-10-23T13:23:45.166Z,23.12
2022-10-23T13:26:28.668Z,23.13
2022-10-23T13:28:56.346Z,23.11
2022-10-23T13:31:26.888Z,23.12
2022-10-23T13:34:17.405Z,23.10
2022-10-23T13:37:23.556Z,23.06
2022-10-23T13:39:59.746Z,23.04
2022-10-23T13:42:26.492Z,23.04
2022-10-23T13:44:53.357Z,23.05
2022-10-23T13:47:20.645Z,23.05
2022-10-23T13:49:47.612Z,23.06
2022-10-23T13:52:19.323Z,23.06
2022-10-23T13:54:47.698Z,23.07
2022-10-23T13:57:15.756Z,23.09
2022-10-23T13:59:42.706Z,23.08
2022-10-23T14:02:18.668Z,23.09
2022-10-23T14:04:46.552Z,23.03
2022-10-23T14:07:13.522Z,22.99
2022-10-23T14:09:40.236Z,22.95
2022-10-23T14:12:08.662Z,22.92
2022-10-23T14:14:35.366Z,22.89
2022-10-23T14:17:01.981Z,22.87
2022-10-23T14:19:28.841Z,22.83
2022-10-23T14:21:55.771Z,22.74
2022-10-23T14:24:22.651Z,22.69
2022-10-23T14:26:49.402Z,22.62
2022-10-23T14:29:22.900Z,22.57
2022-10-23T14:31:50.951Z,22.50
2022-10-23T14:34:17.717Z,22.45
2022-10-23T14:36:50.284Z,22.40
2022-10-23T14:39:18.148Z,22.35
2022-10-23T14:41:45.070Z,22.29
2022-10-23T14:44:11.755Z,22.24
2022-10-23T14:46:39.888Z,22.19
2022-10-23T14:49:06.967Z,22.14
2022-10-23T14:51:33.829Z,22.06
2022-10-23T14:54:02.590Z,21.97
2022-10-23T14:56:29.859Z,21.83
2022-10-23T14:59:02.706Z,21.75
2022-10-23T15:01:30.124Z,21.70
2022-10-23T15:03:58.553Z,21.67
2022-10-23T15:06:25.690Z,21.59
2022-10-23T15:08:56.505Z,21.56
2022-10-23T15:11:24.861Z,21.50
2022-10-23T15:13:52.078Z,21.45
2022-10-23T15:16:18.990Z,21.44
2022-10-23T15:18:45.970Z,21.37
2022-10-23T15:21:14.838Z,21.31
2022-10-23T15:23:45.083Z,21.27
2022-10-23T15:26:14.322Z,21.22
2022-10-23T15:28:41.036Z,21.15
2022-10-23T15:31:24.140Z,21.10
2022-10-23T15:33:50.841Z,21.00
2022-10-23T15:36:19.104Z,20.92
2022-10-23T15:38:46.002Z,20.82
2022-10-23T15:41:15.395Z,20.76
2022-10-23T15:43:42.174Z,20.64
2022-10-23T15:46:09.080Z,20.53
2022-10-23T15:48:35.791Z,20.41
2022-10-23T15:51:02.530Z,20.32
2022-10-23T15:53:30.640Z,20.23
2022-10-23T15:55:58.780Z,20.14
2022-10-23T15:58:25.871Z,20.06
2022-10-23T16:00:52.669Z,19.95
2022-10-23T16:03:19.393Z,19.86
2022-10-23T16:05:46.286Z,19.79
2022-10-23T16:08:13.231Z,19.73
2022-10-23T16:10:42.287Z,19.63
2022-10-23T16:13:09.148Z,19.53
2022-10-23T16:15:36.251Z,19.45
2022-10-23T16:18:03.226Z,19.38
2022-10-23T16:20:30.455Z,19.32
2022-10-23T16:22:57.154Z,19.23
2022-10-23T16:25:24.124Z,19.16
2022-10-23T16:27:52.336Z,19.11
2022-10-23T16:30:21.383Z,19.07
2022-10-23T16:32:48.097Z,19.02
2022-10-23T16:35:14.822Z,18.96
2022-10-23T16:37:54.759Z,18.85
2022-10-23T16:40:21.438Z,18.77
2022-10-23T16:43:08.337Z,18.65
2022-10-23T16:45:45.267Z,18.58
2022-10-23T16:48:11.921Z,18.55
2022-10-23T16:53:06.227Z,18.50
2022-10-23T16:55:32.889Z,18.47
2022-10-23T16:58:00.745Z,18.39
2022-10-23T17:00:34.832Z,18.29
2022-10-23T17:03:02.703Z,18.21
2022-10-23T17:05:32.450Z,18.17
2022-10-23T17:07:59.121Z,18.13
2022-10-23T17:10:25.897Z,18.08
2022-10-23T17:12:52.608Z,18.05
2022-10-23T17:15:21.187Z,18.02
2022-10-23T17:17:49.371Z,17.94
2022-10-23T17:20:16.118Z,17.86
2022-10-23T17:22:42.921Z,17.78
2022-10-23T17:25:10.462Z,17.73
2022-10-23T17:27:37.354Z,17.67
2022-10-23T17:30:08.158Z,17.59
2022-10-23T17:32:37.331Z,17.52
2022-10-23T17:35:08.373Z,17.47
2022-10-23T17:37:35.319Z,17.43
2022-10-23T17:40:05.017Z,17.39
2022-10-23T17:42:31.974Z,17.30
2022-10-23T17:44:58.932Z,17.25
2022-10-23T17:47:25.614Z,17.21
2022-10-23T17:49:52.615Z,17.15
2022-10-23T17:52:20.598Z,17.12
2022-10-23T17:54:51.464Z,17.14
2022-10-23T17:57:18.195Z,17.13
2022-10-23T17:59:44.905Z,17.06
2022-10-23T18:02:13.683Z,16.95
2022-10-23T18:04:40.750Z,16.86
2022-10-23T18:07:07.558Z,16.78
2022-10-23T18:09:35.720Z,16.78
2022-10-23T18:12:02.537Z,16.81
2022-10-23T18:14:29.922Z,16.81
2022-10-23T18:16:56.829Z,16.76
2022-10-23T18:19:23.715Z,16.73
2022-10-23T18:21:50.392Z,16.71
2022-10-23T18:24:18.154Z,16.69
2022-10-23T18:26:48.113Z,16.68
2022-10-23T18:29:17.277Z,16.67
2022-10-23T18:31:45.331Z,16.62
2022-10-23T18:34:15.978Z,16.57
2022-10-23T18:36:43.005Z,16.49
2022-10-23T18:39:13.404Z,16.39
2022-10-23T18:41:42.881Z,16.34
2022-10-23T18:44:15.423Z,16.36
2022-10-23T18:46:42.443Z,16.35
2022-10-23T18:49:09.313Z,16.29
2022-10-23T18:51:37.014Z,16.22
2022-10-23T18:54:06.994Z,16.14
2022-10-23T18:56:35.837Z,16.09
2022-10-23T18:59:05.263Z,16.09
2022-10-23T19:01:34.769Z,16.13
2022-10-23T19:04:02.266Z,16.16
2022-10-23T19:06:29.905Z,16.21
2022-10-23T19:08:57.274Z,16.28
2022-10-23T19:11:26.454Z,16.34
2022-10-23T19:13:53.302Z,16.35
2022-10-23T19:16:25.873Z,16.40
2022-10-23T19:18:57.350Z,16.41
2022-10-23T19:21:31.119Z,16.41
2022-10-23T19:24:00.452Z,16.41
2022-10-23T19:26:27.813Z,16.41
2022-10-23T19:28:54.527Z,16.43
2022-10-23T19:31:23.358Z,16.46
2022-10-23T19:33:50.628Z,16.50
2022-10-23T19:36:23.032Z,16.48
2022-10-23T19:38:50.569Z,16.50
2022-10-23T19:41:18.842Z,16.53
2022-10-23T19:43:45.614Z,16.52
2022-10-23T19:46:12.623Z,16.56
2022-10-23T19:48:44.115Z,16.58
2022-10-23T19:51:12.998Z,16.61
2022-10-23T19:53:41.956Z,16.62
2022-10-23T19:56:10.949Z,16.62
2022-10-23T19:58:38.007Z,16.62
2022-10-23T20:01:10.498Z,16.59
2022-10-23T20:03:37.849Z,16.56
2022-10-23T20:06:07.632Z,16.54
2022-10-23T20:08:35.151Z,16.48
2022-10-23T20:11:03.582Z,16.42
2022-10-23T20:13:30.606Z,16.32
2022-10-23T20:15:57.432Z,16.27
2022-10-23T20:18:25.822Z,16.24
2022-10-23T20:20:53.199Z,16.30
2022-10-23T20:23:19.936Z,16.33
2022-10-23T20:25:46.683Z,16.33
2022-10-23T20:28:15.323Z,16.34
2022-10-23T20:30:42.648Z,16.33
2022-10-23T20:33:09.489Z,16.32
2022-10-23T20:35:40.384Z,16.35
2022-10-23T20:38:08.236Z,16.35
2022-10-23T20:40:35.735Z,16.33
2022-10-23T20:43:02.510Z,16.31
2022-10-23T20:45:30.624Z,16.33
2022-10-23T20:47:57.352Z,16.33
2022-10-23T20:50:24.114Z,16.34
2022-10-23T20:52:51.399Z,16.36
2022-10-23T20:55:18.972Z,16.39
2022-10-23T20:57:46.742Z,16.39
2022-10-23T21:00:15.246Z,16.39
2022-10-23T21:02:47.012Z,16.39
2022-10-23T21:05:15.790Z,16.39
2022-10-23T21:07:42.659Z,16.38
2022-10-23T21:10:09.589Z,16.40
2022-10-23T21:12:36.295Z,16.40
2022-10-23T21:15:03.052Z,16.39
2022-10-23T21:17:35.279Z,16.37
2022-10-23T21:20:04.245Z,16.26
2022-10-23T21:22:31.273Z,16.18
2022-10-23T21:25:00.153Z,16.14
2022-10-23T21:27:27.044Z,16.12
2022-10-23T21:29:53.872Z,16.11
2022-10-23T21:32:20.856Z,16.13
2022-10-23T21:34:47.617Z,16.17
2022-10-23T21:37:15.769Z,16.23
2022-10-23T21:39:43.710Z,16.27
2022-10-23T21:42:10.895Z,16.24
2022-10-23T21:44:37.621Z,16.25
2022-10-23T21:47:04.533Z,16.28
2022-10-23T21:49:31.539Z,16.28
2022-10-23T21:51:58.407Z,16.27
2022-10-23T21:54:26.695Z,16.24
2022-10-23T21:56:53.935Z,16.24
2022-10-23T21:59:22.672Z,16.17
2022-10-23T22:01:50.035Z,16.17
2022-10-23T22:04:18.538Z,16.19
2022-10-23T22:06:46.929Z,16.27
2022-10-23T22:09:15.327Z,16.34
2022-10-23T22:11:43.422Z,16.43
2022-10-23T22:14:10.238Z,16.53
2022-10-23T22:16:37.048Z,16.61
2022-10-23T22:19:04.070Z,16.68
2022-10-23T22:21:31.040Z,16.79
2022-10-23T22:23:59.566Z,16.88
2022-10-23T22:26:28.690Z,16.95
2022-10-23T22:28:59.385Z,17.07
2022-10-23T22:31:28.615Z,17.14
2022-10-23T22:33:56.207Z,17.19
2022-10-23T22:36:23.382Z,17.23
2022-10-23T22:38:50.331Z,17.28
2022-10-23T22:41:18.060Z,17.33
2022-10-23T22:43:45.010Z,17.40
2022-10-23T22:46:15.117Z,17.44
2022-10-23T22:48:42.259Z,17.45
2022-10-23T22:51:12.094Z,17.47
2022-10-23T22:53:38.903Z,17.50
2022-10-23T22:56:06.447Z,17.54
2022-10-23T22:58:33.530Z,17.58
2022-10-23T23:01:04.732Z,17.60
2022-10-23T23:03:34.623Z,17.61
2022-10-23T23:06:03.634Z,17.63
2022-10-23T23:08:30.138Z,17.60
2022-10-23T23:10:57.863Z,17.60
2022-10-23T23:13:25.525Z,17.62
2022-10-23T23:15:52.435Z,17.63
2022-10-23T23:18:19.559Z,17.63
2022-10-23T23:20:47.827Z,17.62
2022-10-23T23:23:15.355Z,17.62
2022-10-23T23:25:42.929Z,17.62
2022-10-23T23:28:11.904Z,17.63
2022-10-23T23:30:38.920Z,17.63
2022-10-23T23:33:05.624Z,17.62
2022-10-23T23:35:32.371Z,17.63
2022-10-23T23:38:00.614Z,17.64
2022-10-23T23:40:27.370Z,17.66
2022-10-23T23:42:54.007Z,17.65
2022-10-23T23:45:20.796Z,17.63
2022-10-23T23:47:47.781Z,17.61
2022-10-23T23:50:15.237Z,17.59
2022-10-23T23:52:42.074Z,17.54
2022-10-23T23:55:10.761Z,17.55
2022-10-23T23:57:37.501Z,17.55
